createdAt,value
2022-10-24T00:01:22.965Z,83.31
2022-10-24T00:03:50.951Z,83.19
2022-10-24T00:06:20.004Z,83.48
2022-10-24T00:08:48.102Z,83.10
2022-10-24T00:11:28.230Z,82.68
2022-10-24T00:13:57.498Z,82.93
2022-10-24T00:16:25.415Z,83.24
2022-10-24T00:18:52.810Z,82.94
2022-10-24T00:21:21.390Z,82.62
2022-10-24T00:23:48.613Z,82.68
2022-10-24T00:26:16.802Z,82.69
2022-10-24T00:28:44.241Z,82.60
2022-10-24T00:31:19.512Z,82.62
2022-10-24T00:33:46.719Z,82.51
2022-10-24T00:36:18.199Z,82.46
2022-10-24T00:38:45.793Z,82.41
2022-10-24T00:41:26.117Z,82.85
2022-10-24T00:44:23.982Z,82.33
2022-10-24T00:46:51.049Z,82.20
2022-10-24T00:49:23.484Z,82.35
2022-10-24T00:51:57.501Z,82.68
2022-10-24T00:54:25.037Z,81.98
2022-10-24T00:57:05.438Z,82.22
2022-10-24T00:59:36.301Z,82.22
2022-10-24T01:02:03.804Z,82.80
2022-10-24T01:04:30.706Z,82.58
2022-10-24T01:07:39.337Z,82.66
2022-10-24T01:11:04.611Z,83.04
2022-10-24T01:14:02.699Z,82.91
2022-10-24T01:17:04.865Z,83.02
2022-10-24T01:20:22.762Z,82.92
2022-10-24T01:23:11.092Z,82.93
2022-10-24T01:26:06.375Z,83.02
2022-10-24T01:28:53.579Z,83.43
2022-10-24T01:31:38.846Z,83.21
2022-10-24T01:34:26.214Z,83.27
2022-10-24T01:37:15.017Z,83.57
2022-10-24T01:39:50.287Z,83.23
2022-10-24T01:42:23.988Z,83.56
2022-10-24T01:44:57.469Z,83.45
2022-10-24T01:47:30.769Z,83.64
2022-10-24T01:50:05.796Z,83.40
2022-10-24T01:52:40.015Z,83.62
2022-10-24T01:55:08.924Z,83.59
2022-10-24T01:57:36.167Z,83.50
2022-10-24T02:00:08.040Z,83.79
2022-10-24T02:02:43.226Z,83.48
2022-10-24T02:05:27.395Z,83.67
2022-10-24T02:08:02.749Z,83.74
2022-10-24T02:10:34.731Z,83.47
2022-10-24T02:13:19.405Z,83.45
2022-10-24T02:15:52.471Z,83.76
2022-10-24T02:18:20.338Z,83.72
2022-10-24T02:21:12.703Z,83.55
2022-10-24T02:23:52.118Z,83.96
2022-10-24T02:26:33.486Z,84.13
2022-10-24T02:29:12.114Z,83.84
2022-10-24T02:31:45.916Z,84.40
2022-10-24T02:34:14.883Z,84.19
2022-10-24T02:36:44.772Z,84.43
2022-10-24T02:39:12.604Z,84.10
2022-10-24T02:41:42.559Z,83.83
2022-10-24T02:44:12.625Z,84.03
2022-10-24T02:46:40.773Z,83.97
2022-10-24T02:49:07.947Z,84.44
2022-10-24T02:51:40.850Z,84.25
2022-10-24T02:54:07.946Z,84.13
2022-10-24T02:56:37.126Z,84.31
2022-10-24T02:59:04.114Z,84.37
2022-10-24T03:01:30.997Z,84.08
2022-10-24T03:03:58.049Z,83.79
2022-10-24T03:06:25.090Z,83.77
2022-10-24T03:08:52.023Z,83.71
2022-10-24T03:11:18.851Z,84.05
2022-10-24T03:13:46.011Z,84.02
2022-10-24T03:16:14.153Z,83.81
2022-10-24T03:18:41.670Z,83.90
2022-10-24T03:21:08.639Z,84.32
2022-10-24T03:23:35.713Z,84.66
2022-10-24T03:26:02.470Z,85.02
2022-10-24T03:28:29.519Z,84.66
2022-10-24T03:30:56.393Z,84.40
2022-10-24T03:33:23.407Z,84.54
2022-10-24T03:35:54.103Z,84.39
2022-10-24T03:38:22.885Z,83.96
2022-10-24T03:40:50.470Z,84.02
2022-10-24T03:43:19.444Z,84.02
2022-10-24T03:45:46.212Z,83.92
2022-10-24T03:48:14.037Z,83.83
2022-10-24T03:50:41.054Z,83.73
2022-10-24T03:53:08.006Z,83.80
2022-10-24T03:55:35.009Z,83.86
2022-10-24T03:58:01.923Z,83.84
2022-10-24T04:00:29.252Z,83.74
2022-10-24T04:02:56.649Z,83.63
2022-10-24T04:05:23.429Z,83.65
2022-10-24T04:07:50.487Z,83.77
2022-10-24T04:10:17.405Z,83.51
2022-10-24T04:12:44.443Z,83.61
2022-10-24T04:15:11.537Z,83.41
2022-10-24T04:17:38.601Z,83.31
2022-10-24T04:20:06.381Z,83.41
2022-10-24T04:22:33.756Z,83.44
2022-10-24T04:25:00.472Z,83.51
2022-10-24T04:27:27.699Z,83.68
2022-10-24T04:29:54.434Z,83.85
2022-10-24T04:32:21.299Z,84.02
2022-10-24T04:34:48.014Z,83.52
2022-10-24T04:37:14.954Z,83.81
2022-10-24T04:39:41.823Z,83.82
2022-10-24T04:42:08.859Z,84.20
2022-10-24T04:44:35.574Z,83.81
2022-10-24T04:47:02.657Z,83.97
2022-10-24T04:49:29.465Z,84.19
2022-10-24T04:51:56.477Z,84.28
2022-10-24T04:54:23.252Z,84.24
2022-10-24T04:56:50.133Z,84.32
2022-10-24T04:59:16.956Z,84.36
2022-10-24T05:01:44.039Z,84.54
2022-10-24T05:04:10.748Z,84.34
2022-10-24T05:06:39.295Z,84.61
2022-10-24T05:09:08.332Z,84.06
2022-10-24T05:11:35.488Z,84.05
2022-10-24T05:14:02.561Z,84.31
2022-10-24T05:16:29.582Z,84.21
2022-10-24T05:18:56.376Z,84.10
2022-10-24T05:21:23.315Z,84.25
2022-10-24T05:23:50.065Z,84.13
2022-10-24T05:26:16.972Z,84.10
2022-10-24T05:28:45.094Z,84.29
2022-10-24T05:31:13.559Z,84.36
2022-10-24T05:33:40.333Z,84.39
2022-10-24T05:36:07.619Z,84.77
2022-10-24T05:38:34.362Z,84.66
2022-10-24T05:41:01.228Z,84.84
2022-10-24T05:43:27.962Z,84.62
2022-10-24T05:45:54.869Z,84.85
2022-10-24T05:48:21.517Z,84.81
2022-10-24T05:50:48.390Z,84.83
2022-10-24T05:53:15.145Z,84.71
2022-10-24T05:55:42.075Z,84.85
2022-10-24T05:58:08.772Z,84.62
2022-10-24T06:00:35.716Z,84.86
2022-10-24T06:03:02.484Z,84.60
2022-10-24T06:05:29.832Z,84.75
2022-10-24T06:07:59.370Z,84.45
2022-10-24T06:10:26.365Z,84.61
2022-10-24T06:12:53.074Z,84.63
2022-10-24T06:15:20.043Z,84.26
2022-10-24T06:17:46.898Z,84.35
2022-10-24T06:20:13.885Z,84.58
2022-10-24T06:22:40.913Z,84.46
2022-10-24T06:25:08.281Z,84.54
2022-10-24T06:27:35.060Z,84.37
2022-10-24T06:30:02.123Z,84.34
2022-10-24T06:32:29.079Z,84.31
2022-10-24T06:34:58.217Z,84.40
2022-10-24T06:37:24.946Z,84.19
2022-10-24T06:39:51.925Z,84.39
2022-10-24T06:42:19.122Z,84.54
2022-10-24T06:44:46.066Z,84.32
2022-10-24T06:47:12.885Z,84.40
2022-10-24T06:49:39.912Z,84.21
2022-10-24T06:52:07.062Z,84.10
2022-10-24T06:54:35.412Z,84.19
2022-10-24T06:57:02.542Z,83.95
2022-10-24T06:59:29.624Z,84.08
2022-10-24T07:01:59.320Z,83.68
2022-10-24T07:04:29.029Z,83.42
2022-10-24T07:06:55.871Z,83.31
2022-10-24T07:09:22.806Z,83.01
2022-10-24T07:13:39.352Z,83.52
2022-10-24T07:16:07.755Z,83.40
2022-10-24T07:18:34.923Z,83.02
2022-10-24T07:21:17.874Z,83.45
2022-10-24T07:23:45.222Z,83.26
2022-10-24T07:26:16.663Z,83.45
2022-10-24T07:28:47.921Z,83.14
2022-10-24T07:31:19.267Z,82.72
2022-10-24T07:33:46.415Z,81.96
2022-10-24T07:36:23.902Z,81.97
2022-10-24T07:38:54.372Z,81.54
2022-10-24T07:41:21.925Z,81.85
2022-10-24T07:43:48.828Z,81.75
2022-10-24T07:46:40.793Z,81.79
2022-10-24T07:49:24.777Z,81.56
2022-10-24T07:51:51.759Z,81.51
2022-10-24T07:54:25.775Z,81.80
2022-10-24T07:56:54.180Z,81.72
2022-10-24T07:59:40.704Z,81.65
2022-10-24T08:02:13.935Z,81.33
2022-10-24T08:04:41.401Z,81.77
2022-10-24T08:07:13.620Z,81.07
2022-10-24T08:09:47.029Z,81.02
2022-10-24T08:12:14.657Z,81.32
2022-10-24T08:14:42.198Z,80.55
2022-10-24T08:17:10.280Z,81.22
2022-10-24T08:19:37.213Z,81.01
2022-10-24T08:22:04.498Z,81.22
2022-10-24T08:24:31.351Z,80.23
2022-10-24T08:26:59.677Z,80.27
2022-10-24T08:29:26.792Z,80.30
2022-10-24T08:31:56.840Z,80.93
2022-10-24T08:34:23.802Z,80.50
2022-10-24T08:36:51.287Z,80.85
2022-10-24T08:39:19.103Z,80.71
2022-10-24T08:42:02.272Z,80.24
2022-10-24T08:44:33.192Z,80.20
2022-10-24T08:50:33.592Z,79.62
2022-10-24T08:53:00.657Z,79.49
2022-10-24T08:55:50.499Z,79.61
2022-10-24T08:58:28.655Z,79.49
2022-10-24T09:01:01.640Z,79.49
2022-10-24T09:04:01.856Z,80.33
2022-10-24T09:06:32.412Z,79.12
2022-10-24T09:09:15.550Z,79.73
2022-10-24T09:12:07.520Z,79.06
2022-10-24T09:14:40.867Z,79.07
2022-10-24T09:17:29.521Z,78.53
2022-10-24T09:20:14.929Z,78.77
2022-10-24T09:22:44.277Z,78.13
2022-10-24T09:25:16.855Z,78.07
2022-10-24T09:27:45.169Z,78.43
2022-10-24T09:30:30.032Z,78.84
2022-10-24T09:33:14.682Z,78.60
2022-10-24T09:35:43.281Z,78.87
2022-10-24T09:38:39.802Z,78.77
2022-10-24T09:41:24.088Z,77.89
2022-10-24T09:43:58.460Z,77.50
2022-10-24T09:46:29.715Z,77.02
2022-10-24T09:49:23.470Z,77.36
2022-10-24T09:55:22.416Z,76.64
2022-10-24T09:57:54.493Z,76.62
2022-10-24T10:00:29.711Z,76.90
2022-10-24T10:03:07.250Z,76.83
2022-10-24T10:05:48.998Z,76.83
2022-10-24T10:08:27.493Z,76.83
2022-10-24T10:11:08.821Z,76.40
2022-10-24T10:13:49.877Z,76.50
2022-10-24T10:16:33.028Z,76.50
2022-10-24T10:19:15.961Z,75.50
2022-10-24T10:22:05.596Z,75.82
2022-10-24T10:24:35.504Z,76.18
2022-10-24T10:27:39.554Z,76.78
2022-10-24T10:30:09.953Z,76.95
2022-10-24T10:33:19.045Z,77.05
2022-10-24T10:36:04.503Z,77.03
2022-10-24T10:38:46.651Z,77.24
2022-10-24T10:41:41.458Z,76.77
2022-10-24T10:44:20.826Z,76.60
2022-10-24T10:47:10.230Z,76.36
2022-10-24T10:49:42.566Z,76.56
2022-10-24T10:52:32.089Z,76.58
2022-10-24T10:55:36.298Z,76.77
2022-10-24T10:58:27.289Z,76.51
2022-10-24T11:01:25.858Z,77.43
2022-10-24T11:04:15.156Z,76.53
2022-10-24T11:07:36.218Z,78.12
2022-10-24T11:10:10.930Z,79.79
2022-10-24T11:12:46.301Z,80.73
2022-10-24T11:15:41.795Z,81.74
2022-10-24T11:18:38.963Z,82.67
2022-10-24T11:21:09.983Z,82.46
2022-10-24T11:24:02.096Z,82.79
2022-10-24T11:26:41.238Z,82.76
2022-10-24T11:29:40.512Z,83.00
2022-10-24T11:32:22.583Z,82.91
2022-10-24T11:35:01.870Z,83.27
2022-10-24T11:37:38.717Z,82.77
2022-10-24T11:40:23.240Z,82.62
2022-10-24T11:43:30.639Z,82.58
2022-10-24T11:46:40.005Z,82.54
2022-10-24T11:49:43.756Z,79.80
2022-10-24T11:52:29.019Z,80.69
2022-10-24T11:55:06.105Z,80.03
2022-10-24T11:57:34.604Z,80.17
2022-10-24T12:00:02.126Z,79.99
2022-10-24T12:03:08.416Z,78.64
2022-10-24T12:06:48.620Z,78.38
2022-10-24T12:09:30.792Z,78.66
2022-10-24T12:12:25.645Z,78.00
2022-10-24T12:15:24.477Z,77.95
2022-10-24T12:18:28.275Z,77.94
2022-10-24T12:21:02.472Z,77.58
2022-10-24T12:23:31.631Z,76.45
2022-10-24T12:26:05.960Z,76.41
2022-10-24T12:28:34.302Z,76.81
2022-10-24T12:31:20.939Z,75.93
2022-10-24T12:34:15.970Z,75.98
2022-10-24T12:37:18.656Z,76.26
2022-10-24T12:39:50.375Z,76.90
2022-10-24T12:42:24.103Z,77.10
2022-10-24T12:45:12.767Z,77.39
2022-10-24T12:47:44.372Z,77.62
2022-10-24T12:50:23.376Z,77.33
2022-10-24T12:52:57.714Z,78.05
2022-10-24T12:56:14.279Z,77.94
2022-10-24T12:58:43.423Z,77.94
2022-10-24T13:01:59.919Z,77.86
2022-10-24T13:05:42.178Z,78.08
2022-10-24T13:09:09.136Z,79.00
2022-10-24T13:12:06.713Z,79.67
2022-10-24T13:14:53.179Z,80.07
2022-10-24T13:17:59.909Z,79.98
2022-10-24T13:20:39.739Z,80.07
2022-10-24T13:23:27.775Z,79.44
2022-10-24T13:25:58.807Z,79.71
2022-10-24T13:28:25.660Z,79.35
2022-10-24T13:30:58.745Z,79.80
2022-10-24T13:33:31.835Z,80.46
2022-10-24T13:36:17.999Z,80.37
2022-10-24T13:38:48.585Z,80.34
2022-10-24T13:41:46.669Z,79.90
2022-10-24T13:44:33.236Z,79.96
2022-10-24T13:47:04.081Z,80.27
2022-10-24T13:49:48.295Z,80.52
2022-10-24T13:52:21.199Z,80.99
2022-10-24T13:54:56.792Z,81.09
2022-10-24T13:57:37.954Z,81.76
2022-10-24T14:00:48.593Z,82.07
2022-10-24T14:03:35.466Z,82.76
2022-10-24T14:06:08.405Z,82.35
2022-10-24T14:09:15.105Z,82.32
2022-10-24T14:11:48.608Z,82.56
2022-10-24T14:14:40.102Z,82.31
2022-10-24T14:17:08.581Z,81.76
2022-10-24T14:19:39.234Z,81.48
2022-10-24T14:22:28.051Z,81.51
2022-10-24T14:24:55.912Z,81.98
2022-10-24T14:27:24.320Z,81.65
2022-10-24T14:30:00.131Z,81.75
2022-10-24T14:32:30.928Z,82.15
2022-10-24T14:37:37.297Z,82.43
2022-10-24T14:40:11.840Z,82.17
2022-10-24T14:42:39.402Z,82.38
2022-10-24T14:45:20.980Z,81.92
2022-10-24T14:47:54.792Z,82.03
2022-10-24T14:50:47.183Z,81.66
2022-10-24T14:53:28.433Z,81.51
2022-10-24T14:56:00.084Z,81.20
2022-10-24T14:58:35.870Z,80.82
2022-10-24T15:01:03.898Z,80.85
2022-10-24T15:03:30.993Z,80.84
2022-10-24T15:06:12.516Z,81.09
2022-10-24T15:11:21.891Z,80.76
2022-10-24T15:14:05.881Z,80.38
2022-10-24T15:16:38.995Z,81.48
2022-10-24T15:19:18.126Z,80.62
2022-10-24T15:21:47.280Z,80.23
2022-10-24T15:24:25.002Z,80.19
2022-10-24T15:26:53.134Z,80.05
2022-10-24T15:29:23.251Z,79.37
2022-10-24T15:31:52.185Z,80.35
2022-10-24T15:34:22.890Z,79.71
2022-10-24T15:36:53.092Z,80.37
2022-10-24T15:39:24.638Z,80.60
2022-10-24T15:41:53.377Z,80.08
2022-10-24T15:44:27.851Z,80.96
2022-10-24T15:46:55.326Z,80.05
2022-10-24T15:49:22.755Z,80.32
2022-10-24T15:51:51.264Z,79.69
2022-10-24T15:54:22.402Z,80.16
2022-10-24T15:56:50.550Z,79.47
2022-10-24T15:59:19.966Z,79.84
2022-10-24T16:01:58.346Z,79.56
2022-10-24T16:04:25.350Z,79.14
2022-10-24T16:06:53.215Z,79.72
2022-10-24T16:09:25.133Z,78.04
2022-10-24T16:11:52.201Z,78.09
2022-10-24T16:14:22.959Z,78.75
2022-10-24T16:16:50.033Z,77.77
2022-10-24T16:19:16.930Z,78.11
2022-10-24T16:21:44.238Z,77.40
2022-10-24T16:24:12.965Z,77.56
2022-10-24T16:26:40.997Z,78.41
2022-10-24T16:29:08.025Z,78.93
2022-10-24T16:31:35.676Z,78.82
2022-10-24T16:34:03.187Z,78.84
2022-10-24T16:36:30.261Z,78.60
2022-10-24T16:38:57.063Z,78.75
2022-10-24T16:41:26.282Z,78.57
2022-10-24T16:43:57.859Z,78.74
2022-10-24T16:46:27.725Z,79.11
2022-10-24T16:48:56.355Z,79.04
2022-10-24T16:51:32.259Z,78.73
2022-10-24T16:54:02.023Z,78.51
2022-10-24T16:56:30.179Z,78.48
2022-10-24T16:58:57.551Z,78.42
2022-10-24T17:01:27.192Z,78.45
2022-10-24T17:03:54.306Z,78.58
2022-10-24T17:06:21.282Z,78.34
2022-10-24T17:08:48.396Z,78.63
2022-10-24T17:11:39.897Z,78.54
2022-10-24T17:14:02.626Z,78.91
2022-10-24T17:16:29.718Z,79.31
2022-10-24T17:19:12.322Z,79.09
2022-10-24T17:21:42.862Z,79.14
2022-10-24T17:24:12.480Z,79.10
2022-10-24T17:26:41.491Z,79.11
2022-10-24T17:29:13.842Z,79.84
2022-10-24T17:31:40.976Z,80.31
2022-10-24T17:34:10.223Z,80.14
2022-10-24T17:36:39.193Z,80.48
2022-10-24T17:39:20.685Z,79.89
2022-10-24T17:41:48.132Z,80.34
2022-10-24T17:44:18.080Z,79.94
2022-10-24T17:46:47.339Z,80.20
2022-10-24T17:49:20.771Z,80.10
2022-10-24T17:51:49.310Z,80.57
2022-10-24T17:54:16.884Z,80.39
2022-10-24T17:56:44.161Z,79.88
2022-10-24T17:59:11.162Z,79.96
2022-10-24T18:01:39.014Z,80.12
2022-10-24T18:04:06.407Z,80.25
2022-10-24T18:06:34.684Z,80.23
2022-10-24T18:09:02.609Z,80.92
2022-10-24T18:11:30.536Z,80.32
2022-10-24T18:13:57.904Z,80.61
2022-10-24T18:16:27.403Z,80.09
2022-10-24T18:18:57.056Z,80.20
2022-10-24T18:21:25.761Z,80.49
2022-10-24T18:23:54.089Z,80.43
2022-10-24T18:26:25.749Z,80.11
2022-10-24T18:28:55.723Z,80.17
2022-10-24T18:31:28.719Z,79.91
2022-10-24T18:33:59.244Z,79.74
2022-10-24T18:36:30.487Z,79.84
2022-10-24T18:39:01.757Z,79.83
2022-10-24T18:41:54.817Z,80.03
2022-10-24T18:44:25.241Z,79.67
2022-10-24T18:46:56.599Z,79.81
2022-10-24T18:49:24.472Z,79.51
2022-10-24T18:52:14.802Z,79.00
2022-10-24T18:55:04.577Z,78.88
2022-10-24T18:57:34.560Z,78.76
2022-10-24T19:00:01.572Z,78.54
2022-10-24T19:02:55.550Z,78.29
2022-10-24T19:06:24.288Z,78.23
2022-10-24T19:08:51.953Z,77.83
2022-10-24T19:11:19.246Z,77.88
2022-10-24T19:13:46.666Z,77.66
2022-10-24T19:16:28.588Z,77.53
2022-10-24T19:19:01.395Z,77.27
2022-10-24T19:21:29.003Z,76.94
2022-10-24T19:23:56.131Z,76.74
2022-10-24T19:26:23.007Z,76.38
2022-10-24T19:28:50.559Z,76.08
2022-10-24T19:31:17.549Z,75.98
2022-10-24T19:33:44.899Z,75.85
2022-10-24T19:36:15.574Z,75.43
2022-10-24T19:38:45.574Z,75.37
2022-10-24T19:41:12.792Z,75.51
2022-10-24T19:43:40.109Z,74.81
2022-10-24T19:46:19.280Z,74.98
2022-10-24T19:48:49.489Z,75.05
2022-10-24T19:51:18.926Z,74.80
2022-10-24T19:53:47.446Z,74.62
2022-10-24T19:56:20.168Z,74.42
2022-10-24T19:58:49.847Z,74.46
2022-10-24T20:01:20.739Z,74.61
2022-10-24T20:03:49.919Z,74.50
2022-10-24T20:06:18.215Z,74.47
2022-10-24T20:08:49.794Z,74.34
2022-10-24T20:11:17.526Z,74.40
2022-10-24T20:13:44.513Z,74.06
2022-10-24T20:16:11.626Z,74.28
2022-10-24T20:21:17.807Z,74.17
2022-10-24T20:23:49.174Z,73.97
2022-10-24T20:26:26.027Z,73.89
2022-10-24T20:28:55.947Z,73.69
2022-10-24T20:31:30.040Z,73.69
2022-10-24T20:34:05.183Z,73.64
2022-10-24T20:36:37.913Z,73.17
2022-10-24T20:39:08.855Z,72.67
2022-10-24T20:41:37.314Z,73.27
2022-10-24T20:44:07.099Z,73.16
2022-10-24T20:46:34.690Z,72.98
2022-10-24T20:49:02.551Z,73.08
2022-10-24T20:51:29.590Z,72.93
2022-10-24T20:53:57.645Z,72.86
2022-10-24T20:56:28.648Z,72.91
2022-10-24T20:58:56.617Z,72.78
2022-10-24T21:01:27.711Z,72.72
2022-10-24T21:03:57.252Z,72.32
2022-10-24T21:06:29.055Z,71.81
2022-10-24T21:09:00.147Z,72.03
2022-10-24T21:11:30.306Z,72.15
2022-10-24T21:14:05.869Z,72.07
2022-10-24T21:16:36.156Z,72.20
2022-10-24T21:19:05.067Z,71.68
2022-10-24T21:21:32.341Z,71.80
2022-10-24T21:24:06.920Z,71.61
2022-10-24T21:26:40.112Z,71.57
2022-10-24T21:29:31.745Z,71.44
2022-10-24T21:31:57.059Z,71.44
2022-10-24T21:34:26.735Z,71.12
2022-10-24T21:36:57.406Z,71.24
2022-10-24T21:39:27.310Z,71.39
2022-10-24T21:41:55.568Z,71.73
2022-10-24T21:44:25.669Z,71.54
2022-10-24T21:46:54.426Z,71.84
2022-10-24T21:49:22.022Z,71.71
2022-10-24T21:51:49.493Z,71.87
2022-10-24T21:54:24.352Z,72.14
2022-10-24T21:56:51.754Z,71.98
2022-10-24T21:59:21.105Z,71.99
2022-10-24T22:01:51.231Z,72.34
2022-10-24T22:04:19.157Z,72.11
2022-10-24T22:06:46.586Z,71.88
2022-10-24T22:09:19.600Z,72.15
2022-10-24T22:11:47.108Z,72.08
2022-10-24T22:14:17.317Z,72.32
2022-10-24T22:16:44.542Z,71.92
2022-10-24T22:19:13.179Z,72.11
2022-10-24T22:21:44.567Z,71.96
2022-10-24T22:24:22.303Z,72.24
2022-10-24T22:26:51.231Z,72.08
2022-10-24T22:29:22.898Z,71.93
2022-10-24T22:31:52.102Z,71.84
2022-10-24T22:34:25.416Z,72.20
2022-10-24T22:37:27.428Z,71.77
2022-10-24T22:39:54.927Z,72.36
2022-10-24T22:42:22.149Z,71.79
2022-10-24T22:44:50.973Z,72.10
2022-10-24T22:47:38.962Z,71.90
2022-10-24T22:50:46.814Z,71.97
2022-10-24T22:53:17.578Z,71.87
2022-10-24T22:56:14.991Z,71.90
2022-10-24T22:58:45.318Z,71.58
2022-10-24T23:01:40.410Z,72.10
2022-10-24T23:04:26.114Z,72.16
2022-10-24T23:06:58.175Z,72.51
2022-10-24T23:09:25.021Z,72.24
2022-10-24T23:11:52.729Z,72.29
2022-10-24T23:14:20.095Z,72.72
2022-10-24T23:16:58.876Z,72.92
2022-10-24T23:19:29.769Z,72.98
2022-10-24T23:22:03.476Z,72.67
2022-10-24T23:24:30.550Z,72.60
2022-10-24T23:27:12.605Z,72.24
2022-10-24T23:29:43.490Z,72.51
2022-10-24T23:32:30.237Z,72.51
2022-10-24T23:34:59.298Z,72.63
2022-10-24T23:37:43.352Z,72.79
2022-10-24T23:40:37.018Z,73.44
2022-10-24T23:43:05.090Z,72.83
2022-10-24T23:45:48.861Z,72.68
2022-10-24T23:48:35.086Z,73.16
2022-10-24T23:51:37.133Z,73.30
2022-10-24T23:54:09.891Z,72.98
2022-10-24T23:56:37.324Z,72.98
2022-10-24T23:59:05.409Z,72.90
